sensor_id;sensor_type;location;lat;lon;timestamp;pressure;altitude;pressure_sealevel;temperature;humidity
68656;BME280;55638;51.122;13.606;2022-10-16T00:01:19;99876.16;;;12.90;59.92
68656;BME280;55638;51.122;13.606;2022-10-16T00:02:51;99880.59;;;12.91;59.76
68656;BME280;55638;51.122;13.606;2022-10-16T00:04:23;99881.28;;;12.93;58.99
68656;BME280;55638;51.122;13.606;2022-10-16T00:05:58;99883.84;;;12.95;59.65
68656;BME280;55638;51.122;13.606;2022-10-16T00:07:29;99884.69;;;12.95;59.31
68656;BME280;55638;51.122;13.606;2022-10-16T00:09:01;99882.69;;;12.98;58.89
68656;BME280;55638;51.122;13.606;2022-10-16T00:10:33;99876.25;;;12.99;58.42
68656;BME280;55638;51.122;13.606;2022-10-16T00:12:05;99878.09;;;12.98;58.61
68656;BME280;55638;51.122;13.606;2022-10-16T00:13:39;99889.78;;;12.99;58.74
68656;BME280;55638;51.122;13.606;2022-10-16T00:15:12;99889.78;;;12.99;58.38
68656;BME280;55638;51.122;13.606;2022-10-16T00:16:44;99897.09;;;12.98;58.25
68656;BME280;55638;51.122;13.606;2022-10-16T00:18:15;99893.53;;;12.98;58.13
68656;BME280;55638;51.122;13.606;2022-10-16T00:19:47;99894.50;;;12.97;58.09
68656;BME280;55638;51.122;13.606;2022-10-16T00:21:38;99895.34;;;12.97;57.55
68656;BME280;55638;51.122;13.606;2022-10-16T00:23:28;99888.41;;;12.94;57.13
68656;BME280;55638;51.122;13.606;2022-10-16T00:25:00;99887.72;;;12.92;57.44
68656;BME280;55638;51.122;13.606;2022-10-16T00:26:33;99892.44;;;12.90;57.79
68656;BME280;55638;51.122;13.606;2022-10-16T00:28:05;99895.31;;;12.89;57.75
68656;BME280;55638;51.122;13.606;2022-10-16T00:29:37;99896.47;;;12.86;58.22
68656;BME280;55638;51.122;13.606;2022-10-16T00:31:09;99903.75;;;12.86;58.13
68656;BME280;55638;51.122;13.606;2022-10-16T00:32:41;99894.78;;;12.85;57.89
68656;BME280;55638;51.122;13.606;2022-10-16T00:34:13;99901.19;;;12.84;57.74
68656;BME280;55638;51.122;13.606;2022-10-16T00:35:45;99900.34;;;12.84;57.78
68656;BME280;55638;51.122;13.606;2022-10-16T00:37:17;99897.63;;;12.84;57.64
68656;BME280;55638;51.122;13.606;2022-10-16T00:38:52;99902.22;;;12.83;57.90
68656;BME280;55638;51.122;13.606;2022-10-16T00:40:26;99906.78;;;12.83;57.96
68656;BME280;55638;51.122;13.606;2022-10-16T00:41:59;99914.06;;;12.82;58.43
68656;BME280;55638;51.122;13.606;2022-10-16T00:43:44;99910.50;;;12.82;58.52
68656;BME280;55638;51.122;13.606;2022-10-16T00:45:16;99904.91;;;12.83;58.63
68656;BME280;55638;51.122;13.606;2022-10-16T00:46:48;99913.06;;;12.83;58.56
68656;BME280;55638;51.122;13.606;2022-10-16T00:48:20;99908.34;;;12.85;57.87
68656;BME280;55638;51.122;13.606;2022-10-16T00:49:53;99914.59;;;12.86;57.94
68656;BME280;55638;51.122;13.606;2022-10-16T00:51:34;99921.72;;;12.87;58.31
68656;BME280;55638;51.122;13.606;2022-10-16T00:53:06;99916.28;;;12.87;57.89
68656;BME280;55638;51.122;13.606;2022-10-16T00:54:37;99917.13;;;12.87;58.32
68656;BME280;55638;51.122;13.606;2022-10-16T00:56:09;99912.75;;;12.86;59.30
68656;BME280;55638;51.122;13.606;2022-10-16T00:57:41;99904.59;;;12.86;59.72
68656;BME280;55638;51.122;13.606;2022-10-16T00:59:20;99906.28;;;12.87;59.29
68656;BME280;55638;51.122;13.606;2022-10-16T01:00:54;99910.56;;;12.90;59.41
68656;BME280;55638;51.122;13.606;2022-10-16T01:02:26;99912.13;;;12.92;59.16
68656;BME280;55638;51.122;13.606;2022-10-16T01:03:58;99912.81;;;12.94;58.76
68656;BME280;55638;51.122;13.606;2022-10-16T01:05:31;99909.78;;;12.98;58.28
68656;BME280;55638;51.122;13.606;2022-10-16T01:07:08;99914.19;;;12.99;58.65
68656;BME280;55638;51.122;13.606;2022-10-16T01:08:44;99914.91;;;13.01;58.65
68656;BME280;55638;51.122;13.606;2022-10-16T01:10:39;99921.84;;;13.03;58.70
68656;BME280;55638;51.122;13.606;2022-10-16T01:13:48;99917.66;;;13.09;59.02
68656;BME280;55638;51.122;13.606;2022-10-16T01:16:58;99921.59;;;13.14;59.12
68656;BME280;55638;51.122;13.606;2022-10-16T01:21:36;99919.44;;;13.26;59.14
68656;BME280;55638;51.122;13.606;2022-10-16T01:23:15;99918.13;;;13.30;59.38
68656;BME280;55638;51.122;13.606;2022-10-16T01:24:49;99910.53;;;13.34;59.42
68656;BME280;55638;51.122;13.606;2022-10-16T01:28:11;99922.44;;;13.41;59.32
68656;BME280;55638;51.122;13.606;2022-10-16T01:31:18;99931.66;;;13.48;58.89
68656;BME280;55638;51.122;13.606;2022-10-16T01:32:53;99937.59;;;13.52;59.28
68656;BME280;55638;51.122;13.606;2022-10-16T01:34:33;99933.72;;;13.54;59.28
68656;BME280;55638;51.122;13.606;2022-10-16T01:36:09;99946.13;;;13.57;59.18
68656;BME280;55638;51.122;13.606;2022-10-16T01:39:33;99938.31;;;13.62;59.12
68656;BME280;55638;51.122;13.606;2022-10-16T01:41:12;99933.59;;;13.64;59.15
68656;BME280;55638;51.122;13.606;2022-10-16T01:42:48;99937.69;;;13.68;58.96
68656;BME280;55638;51.122;13.606;2022-10-16T01:44:22;99926.69;;;13.70;59.02
68656;BME280;55638;51.122;13.606;2022-10-16T01:45:56;99921.78;;;13.73;59.02
68656;BME280;55638;51.122;13.606;2022-10-16T01:47:28;99921.59;;;13.75;58.69
68656;BME280;55638;51.122;13.606;2022-10-16T01:49:02;99922.13;;;13.78;58.90
68656;BME280;55638;51.122;13.606;2022-10-16T01:50:35;99915.69;;;13.79;58.85
68656;BME280;55638;51.122;13.606;2022-10-16T01:52:13;99909.09;;;13.82;58.54
68656;BME280;55638;51.122;13.606;2022-10-16T01:53:48;99917.06;;;13.83;58.88
68656;BME280;55638;51.122;13.606;2022-10-16T01:55:22;99918.59;;;13.86;58.54
68656;BME280;55638;51.122;13.606;2022-10-16T01:56:56;99914.72;;;13.88;58.49
68656;BME280;55638;51.122;13.606;2022-10-16T01:58:28;99920.66;;;13.92;58.78
68656;BME280;55638;51.122;13.606;2022-10-16T02:00:07;99923.91;;;13.96;58.43
68656;BME280;55638;51.122;13.606;2022-10-16T02:01:44;99922.03;;;13.96;58.68
68656;BME280;55638;51.122;13.606;2022-10-16T02:03:18;99925.25;;;14.00;58.54
68656;BME280;55638;51.122;13.606;2022-10-16T02:04:53;99932.22;;;14.02;58.72
68656;BME280;55638;51.122;13.606;2022-10-16T02:06:26;99925.63;;;14.05;58.52
68656;BME280;55638;51.122;13.606;2022-10-16T02:07:58;99930.72;;;14.08;58.41
68656;BME280;55638;51.122;13.606;2022-10-16T02:09:32;99931.25;;;14.11;57.98
68656;BME280;55638;51.122;13.606;2022-10-16T02:11:04;99934.81;;;14.12;58.10
68656;BME280;55638;51.122;13.606;2022-10-16T02:12:36;99935.47;;;14.14;58.02
68656;BME280;55638;51.122;13.606;2022-10-16T02:14:10;99931.91;;;14.14;58.00
68656;BME280;55638;51.122;13.606;2022-10-16T02:15:42;99940.91;;;14.14;57.98
68656;BME280;55638;51.122;13.606;2022-10-16T02:17:15;99941.78;;;14.15;58.24
68656;BME280;55638;51.122;13.606;2022-10-16T02:18:47;99942.63;;;14.15;58.10
68656;BME280;55638;51.122;13.606;2022-10-16T02:20:20;99938.03;;;14.16;58.00
68656;BME280;55638;51.122;13.606;2022-10-16T02:21:56;99935.00;;;14.19;58.03
68656;BME280;55638;51.122;13.606;2022-10-16T02:24:14;99940.25;;;14.20;57.96
68656;BME280;55638;51.122;13.606;2022-10-16T02:25:35;99947.41;;;14.21;57.92
68656;BME280;55638;51.122;13.606;2022-10-16T02:28:42;99938.91;;;14.24;57.97
68656;BME280;55638;51.122;13.606;2022-10-16T02:31:48;99938.41;;;14.29;57.95
68656;BME280;55638;51.122;13.606;2022-10-16T02:33:20;99940.94;;;14.30;57.72
68656;BME280;55638;51.122;13.606;2022-10-16T02:34:53;99943.34;;;14.33;58.09
68656;BME280;55638;51.122;13.606;2022-10-16T02:36:26;99948.66;;;14.35;57.86
68656;BME280;55638;51.122;13.606;2022-10-16T02:37:58;99950.19;;;14.38;58.10
68656;BME280;55638;51.122;13.606;2022-10-16T02:39:30;99948.97;;;14.40;57.81
68656;BME280;55638;51.122;13.606;2022-10-16T02:41:03;99946.09;;;14.42;57.61
68656;BME280;55638;51.122;13.606;2022-10-16T02:42:35;99940.50;;;14.43;57.53
68656;BME280;55638;51.122;13.606;2022-10-16T02:44:07;99937.63;;;14.45;57.61
68656;BME280;55638;51.122;13.606;2022-10-16T02:45:39;99949.16;;;14.47;57.85
68656;BME280;55638;51.122;13.606;2022-10-16T02:47:10;99942.72;;;14.48;57.55
68656;BME280;55638;51.122;13.606;2022-10-16T02:49:03;99942.72;;;14.48;57.79
68656;BME280;55638;51.122;13.606;2022-10-16T02:50:35;99942.72;;;14.48;57.60
68656;BME280;55638;51.122;13.606;2022-10-16T02:52:06;99938.13;;;14.48;57.81
68656;BME280;55638;51.122;13.606;2022-10-16T02:53:38;99928.13;;;14.49;57.45
68656;BME280;55638;51.122;13.606;2022-10-16T02:55:10;99933.72;;;14.47;57.65
68656;BME280;55638;51.122;13.606;2022-10-16T02:56:41;99924.69;;;14.47;57.68
68656;BME280;55638;51.122;13.606;2022-10-16T02:58:13;99919.28;;;14.47;57.66
68656;BME280;55638;51.122;13.606;2022-10-16T02:59:45;99920.16;;;14.47;57.39
68656;BME280;55638;51.122;13.606;2022-10-16T03:01:16;99926.41;;;14.48;57.18
68656;BME280;55638;51.122;13.606;2022-10-16T03:02:48;99919.28;;;14.47;57.44
68656;BME280;55638;51.122;13.606;2022-10-16T03:04:20;99926.41;;;14.48;56.96
68656;BME280;55638;51.122;13.606;2022-10-16T03:05:52;99924.69;;;14.47;57.19
68656;BME280;55638;51.122;13.606;2022-10-16T03:07:24;99923.84;;;14.46;56.91
68656;BME280;55638;51.122;13.606;2022-10-16T03:08:55;99934.91;;;14.45;57.04
68656;BME280;55638;51.122;13.606;2022-10-16T03:10:27;99926.75;;;14.45;56.97
68656;BME280;55638;51.122;13.606;2022-10-16T03:11:59;99932.34;;;14.43;56.95
68656;BME280;55638;51.122;13.606;2022-10-16T03:13:30;99942.69;;;14.40;56.93
68656;BME280;55638;51.122;13.606;2022-10-16T03:15:02;99942.69;;;14.40;56.91
68656;BME280;55638;51.122;13.606;2022-10-16T03:16:34;99956.59;;;14.37;56.75
68656;BME280;55638;51.122;13.606;2022-10-16T03:18:06;99951.50;;;14.33;56.95
68656;BME280;55638;51.122;13.606;2022-10-16T03:19:38;99949.81;;;14.32;57.02
68656;BME280;55638;51.122;13.606;2022-10-16T03:21:09;99941.97;;;14.29;57.12
68656;BME280;55638;51.122;13.606;2022-10-16T03:22:41;99945.00;;;14.26;57.00
68656;BME280;55638;51.122;13.606;2022-10-16T03:24:13;99942.81;;;14.22;56.68
68656;BME280;55638;51.122;13.606;2022-10-16T03:25:44;99949.41;;;14.19;56.88
68656;BME280;55638;51.122;13.606;2022-10-16T03:27:18;99947.03;;;14.16;56.74
68656;BME280;55638;51.122;13.606;2022-10-16T03:28:50;99952.09;;;14.11;56.81
68656;BME280;55638;51.122;13.606;2022-10-16T03:30:21;99957.88;;;14.08;56.84
68656;BME280;55638;51.122;13.606;2022-10-16T03:31:53;99950.91;;;14.05;56.84
68656;BME280;55638;51.122;13.606;2022-10-16T03:33:25;99956.81;;;14.01;56.52
68656;BME280;55638;51.122;13.606;2022-10-16T03:34:57;99952.03;;;13.95;57.08
68656;BME280;55638;51.122;13.606;2022-10-16T03:36:28;99938.81;;;13.92;56.79
68656;BME280;55638;51.122;13.606;2022-10-16T03:38:00;99946.41;;;13.88;56.86
68656;BME280;55638;51.122;13.606;2022-10-16T03:39:32;99947.09;;;13.82;57.19
68656;BME280;55638;51.122;13.606;2022-10-16T03:41:04;99954.69;;;13.78;56.91
68656;BME280;55638;51.122;13.606;2022-10-16T03:42:36;99951.44;;;13.75;57.23
68656;BME280;55638;51.122;13.606;2022-10-16T03:44:07;99957.38;;;13.70;57.13
68656;BME280;55638;51.122;13.606;2022-10-16T03:45:39;99954.97;;;13.67;57.40
68656;BME280;55638;51.122;13.606;2022-10-16T03:47:11;99955.31;;;13.64;57.01
68656;BME280;55638;51.122;13.606;2022-10-16T03:48:43;99964.78;;;13.60;57.41
68656;BME280;55638;51.122;13.606;2022-10-16T03:50:14;99961.38;;;13.58;57.31
68656;BME280;55638;51.122;13.606;2022-10-16T03:51:46;99969.16;;;13.53;57.96
68656;BME280;55638;51.122;13.606;2022-10-16T03:53:18;99966.59;;;13.51;57.42
68656;BME280;55638;51.122;13.606;2022-10-16T03:54:50;99962.34;;;13.49;57.70
68656;BME280;55638;51.122;13.606;2022-10-16T03:56:21;99965.38;;;13.46;58.28
68656;BME280;55638;51.122;13.606;2022-10-16T03:57:53;99959.28;;;13.44;58.08
68656;BME280;55638;51.122;13.606;2022-10-16T03:59:25;99967.41;;;13.44;57.99
68656;BME280;55638;51.122;13.606;2022-10-16T04:00:56;99967.50;;;13.42;58.00
68656;BME280;55638;51.122;13.606;2022-10-16T04:02:28;99974.09;;;13.39;58.11
68656;BME280;55638;51.122;13.606;2022-10-16T04:04:00;99964.28;;;13.38;58.74
68656;BME280;55638;51.122;13.606;2022-10-16T04:05:32;99962.25;;;13.40;58.35
68656;BME280;55638;51.122;13.606;2022-10-16T04:07:03;99969.56;;;13.40;58.37
68656;BME280;55638;51.122;13.606;2022-10-16T04:08:35;99977.69;;;13.40;58.78
68656;BME280;55638;51.122;13.606;2022-10-16T04:10:08;99978.69;;;13.39;58.31
68656;BME280;55638;51.122;13.606;2022-10-16T04:11:39;99978.53;;;13.40;58.46
68656;BME280;55638;51.122;13.606;2022-10-16T04:13:11;99979.22;;;13.42;58.58
68656;BME280;55638;51.122;13.606;2022-10-16T04:14:43;99980.22;;;13.41;58.92
68656;BME280;55638;51.122;13.606;2022-10-16T04:16:15;99980.09;;;13.43;58.37
68656;BME280;55638;51.122;13.606;2022-10-16T04:17:47;99984.34;;;13.46;58.57
68656;BME280;55638;51.122;13.606;2022-10-16T04:19:18;99985.91;;;13.48;58.12
68656;BME280;55638;51.122;13.606;2022-10-16T04:20:50;99988.47;;;13.50;58.45
68656;BME280;55638;51.122;13.606;2022-10-16T04:22:22;99989.16;;;13.52;58.26
68656;BME280;55638;51.122;13.606;2022-10-16T04:23:54;99990.88;;;13.53;58.15
68656;BME280;55638;51.122;13.606;2022-10-16T04:25:25;99981.53;;;13.55;58.19
68656;BME280;55638;51.122;13.606;2022-10-16T04:26:57;99983.94;;;13.58;58.51
68656;BME280;55638;51.122;13.606;2022-10-16T04:28:29;99979.19;;;13.60;58.32
68656;BME280;55638;51.122;13.606;2022-10-16T04:30:00;99985.47;;;13.61;58.61
68656;BME280;55638;51.122;13.606;2022-10-16T04:31:32;99988.88;;;13.63;58.54
68656;BME280;55638;51.122;13.606;2022-10-16T04:33:04;99997.69;;;13.65;58.75
68656;BME280;55638;51.122;13.606;2022-10-16T04:34:36;99999.25;;;13.68;58.37
68656;BME280;55638;51.122;13.606;2022-10-16T04:36:09;100006.22;;;13.70;58.31
68656;BME280;55638;51.122;13.606;2022-10-16T04:37:41;100006.94;;;13.72;58.29
68656;BME280;55638;51.122;13.606;2022-10-16T04:39:12;100004.88;;;13.74;58.49
68656;BME280;55638;51.122;13.606;2022-10-16T04:40:44;100005.41;;;13.78;58.09
68656;BME280;55638;51.122;13.606;2022-10-16T04:42:16;100001.69;;;13.79;58.24
68656;BME280;55638;51.122;13.606;2022-10-16T04:43:47;100000.50;;;13.81;58.17
68656;BME280;55638;51.122;13.606;2022-10-16T04:45:19;100001.19;;;13.83;58.06
68656;BME280;55638;51.122;13.606;2022-10-16T04:46:51;100000.19;;;13.84;58.11
68656;BME280;55638;51.122;13.606;2022-10-16T04:48:22;99996.63;;;13.84;58.07
68656;BME280;55638;51.122;13.606;2022-10-16T04:49:54;99987.31;;;13.86;57.85
68656;BME280;55638;51.122;13.606;2022-10-16T04:51:26;99992.56;;;13.88;57.78
68656;BME280;55638;51.122;13.606;2022-10-16T04:52:59;99986.28;;;13.87;57.77
68656;BME280;55638;51.122;13.606;2022-10-16T04:54:31;99999.19;;;13.85;57.87
68656;BME280;55638;51.122;13.606;2022-10-16T04:56:02;99994.75;;;13.84;57.85
68656;BME280;55638;51.122;13.606;2022-10-16T04:57:34;99993.06;;;13.83;57.85
68656;BME280;55638;51.122;13.606;2022-10-16T04:59:06;99993.25;;;13.82;57.90
68656;BME280;55638;51.122;13.606;2022-10-16T05:00:38;100000.50;;;13.81;57.79
68656;BME280;55638;51.122;13.606;2022-10-16T05:02:09;99998.66;;;13.82;57.62
68656;BME280;55638;51.122;13.606;2022-10-16T05:03:41;99998.81;;;13.80;57.75
68656;BME280;55638;51.122;13.606;2022-10-16T05:05:13;99999.13;;;13.77;57.70
68656;BME280;55638;51.122;13.606;2022-10-16T05:06:45;100010.16;;;13.76;57.66
68656;BME280;55638;51.122;13.606;2022-10-16T05:08:17;99999.44;;;13.74;57.77
68656;BME280;55638;51.122;13.606;2022-10-16T05:09:49;99996.91;;;13.73;57.87
68656;BME280;55638;51.122;13.606;2022-10-16T05:11:20;99995.38;;;13.70;58.05
68656;BME280;55638;51.122;13.606;2022-10-16T05:12:52;100000.63;;;13.72;57.48
68656;BME280;55638;51.122;13.606;2022-10-16T05:14:24;100008.09;;;13.70;57.58
68656;BME280;55638;51.122;13.606;2022-10-16T05:15:55;100011.13;;;13.67;57.81
68656;BME280;55638;51.122;13.606;2022-10-16T05:17:28;100017.53;;;13.65;57.98
68656;BME280;55638;51.122;13.606;2022-10-16T05:19:00;100023.16;;;13.64;57.78
68656;BME280;55638;51.122;13.606;2022-10-16T05:20:52;100022.63;;;13.60;57.86
68656;BME280;55638;51.122;13.606;2022-10-16T05:22:23;100028.19;;;13.59;57.79
68656;BME280;55638;51.122;13.606;2022-10-16T05:23:55;100025.66;;;13.57;58.01
68656;BME280;55638;51.122;13.606;2022-10-16T05:25:27;100026.81;;;13.55;57.96
68656;BME280;55638;51.122;13.606;2022-10-16T05:26:58;100032.56;;;13.52;58.25
68656;BME280;55638;51.122;13.606;2022-10-16T05:28:30;100032.72;;;13.50;58.07
68656;BME280;55638;51.122;13.606;2022-10-16T05:30:02;100028.28;;;13.49;58.30
68656;BME280;55638;51.122;13.606;2022-10-16T05:31:36;100014.19;;;13.46;58.49
68656;BME280;55638;51.122;13.606;2022-10-16T05:33:08;100016.06;;;13.45;58.15
68656;BME280;55638;51.122;13.606;2022-10-16T05:34:40;100019.91;;;13.42;58.57
68656;BME280;55638;51.122;13.606;2022-10-16T05:36:12;100016.34;;;13.42;58.95
68656;BME280;55638;51.122;13.606;2022-10-16T05:37:44;100013.81;;;13.40;58.67
68656;BME280;55638;51.122;13.606;2022-10-16T05:39:16;100011.94;;;13.41;58.24
68656;BME280;55638;51.122;13.606;2022-10-16T05:40:51;100019.22;;;13.40;58.40
68656;BME280;55638;51.122;13.606;2022-10-16T05:42:24;100023.81;;;13.40;58.96
68656;BME280;55638;51.122;13.606;2022-10-16T05:43:55;100021.94;;;13.40;58.49
68656;BME280;55638;51.122;13.606;2022-10-16T05:45:27;100033.63;;;13.41;58.61
68656;BME280;55638;51.122;13.606;2022-10-16T05:46:59;100037.38;;;13.40;58.80
68656;BME280;55638;51.122;13.606;2022-10-16T05:48:30;100045.34;;;13.41;58.82
68656;BME280;55638;51.122;13.606;2022-10-16T05:50:03;100048.06;;;13.41;58.58
68656;BME280;55638;51.122;13.606;2022-10-16T05:51:35;100050.75;;;13.41;58.68
68656;BME280;55638;51.122;13.606;2022-10-16T05:53:07;100063.31;;;13.42;59.02
68656;BME280;55638;51.122;13.606;2022-10-16T05:54:39;100055.16;;;13.42;58.66
68656;BME280;55638;51.122;13.606;2022-10-16T05:56:10;100052.44;;;13.42;59.01
68656;BME280;55638;51.122;13.606;2022-10-16T05:57:44;100047.78;;;13.45;58.65
68656;BME280;55638;51.122;13.606;2022-10-16T05:59:15;100052.19;;;13.46;59.11
68656;BME280;55638;51.122;13.606;2022-10-16T06:00:57;100055.75;;;13.46;59.10
68656;BME280;55638;51.122;13.606;2022-10-16T06:02:29;100048.31;;;13.48;58.61
68656;BME280;55638;51.122;13.606;2022-10-16T06:04:01;100045.44;;;13.50;58.70
68656;BME280;55638;51.122;13.606;2022-10-16T06:05:33;100047.13;;;13.51;58.64
68656;BME280;55638;51.122;13.606;2022-10-16T06:07:04;100049.53;;;13.54;58.37
68656;BME280;55638;51.122;13.606;2022-10-16T06:08:36;100058.34;;;13.56;58.60
68656;BME280;55638;51.122;13.606;2022-10-16T06:10:08;100056.50;;;13.56;58.39
68656;BME280;55638;51.122;13.606;2022-10-16T06:11:40;100053.63;;;13.58;58.23
68656;BME280;55638;51.122;13.606;2022-10-16T06:13:12;100060.75;;;13.59;58.43
68656;BME280;55638;51.122;13.606;2022-10-16T06:14:44;100062.28;;;13.61;58.37
68656;BME280;55638;51.122;13.606;2022-10-16T06:16:16;100075.88;;;13.61;58.43
68656;BME280;55638;51.122;13.606;2022-10-16T06:17:48;100078.44;;;13.63;58.79
68656;BME280;55638;51.122;13.606;2022-10-16T06:19:20;100075.56;;;13.64;58.63
68656;BME280;55638;51.122;13.606;2022-10-16T06:20:52;100082.66;;;13.65;58.64
68656;BME280;55638;51.122;13.606;2022-10-16T06:22:23;100094.09;;;13.69;58.71
68656;BME280;55638;51.122;13.606;2022-10-16T06:23:55;100097.47;;;13.71;58.75
68656;BME280;55638;51.122;13.606;2022-10-16T06:25:27;100090.03;;;13.73;58.88
68656;BME280;55638;51.122;13.606;2022-10-16T06:26:59;100081.56;;;13.76;58.98
68656;BME280;55638;51.122;13.606;2022-10-16T06:28:31;100081.25;;;13.79;58.77
68656;BME280;55638;51.122;13.606;2022-10-16T06:30:02;100081.63;;;13.84;58.62
68656;BME280;55638;51.122;13.606;2022-10-16T06:31:35;100082.31;;;13.86;58.95
68656;BME280;55638;51.122;13.606;2022-10-16T06:33:06;100081.81;;;13.91;59.24
68656;BME280;55638;51.122;13.606;2022-10-16T06:34:38;100086.78;;;13.96;59.09
68656;BME280;55638;51.122;13.606;2022-10-16T06:36:15;100081.72;;;14.01;59.33
68656;BME280;55638;51.122;13.606;2022-10-16T06:37:47;100080.22;;;14.06;59.18
68656;BME280;55638;51.122;13.606;2022-10-16T06:39:19;100092.31;;;14.12;59.36
68656;BME280;55638;51.122;13.606;2022-10-16T06:40:50;100087.22;;;14.17;59.28
68656;BME280;55638;51.122;13.606;2022-10-16T06:42:22;100092.88;;;14.24;59.11
68656;BME280;55638;51.122;13.606;2022-10-16T06:43:55;100099.22;;;14.32;59.00
68656;BME280;55638;51.122;13.606;2022-10-16T06:45:26;100100.44;;;14.38;58.84
68656;BME280;55638;51.122;13.606;2022-10-16T06:46:58;100104.03;;;14.47;58.98
68656;BME280;55638;51.122;13.606;2022-10-16T06:48:30;100111.72;;;14.51;59.07
68656;BME280;55638;51.122;13.606;2022-10-16T06:50:02;100109.19;;;14.58;58.62
68656;BME280;55638;51.122;13.606;2022-10-16T06:51:35;100113.13;;;14.64;58.80
68656;BME280;55638;51.122;13.606;2022-10-16T06:53:10;100106.34;;;14.68;58.61
68656;BME280;55638;51.122;13.606;2022-10-16T06:54:42;100111.97;;;14.74;58.77
68656;BME280;55638;51.122;13.606;2022-10-16T06:56:15;100108.72;;;14.79;58.30
68656;BME280;55638;51.122;13.606;2022-10-16T06:57:47;100100.94;;;14.84;58.53
68656;BME280;55638;51.122;13.606;2022-10-16T06:59:20;100123.22;;;14.88;58.41
68656;BME280;55638;51.122;13.606;2022-10-16T07:00:55;100116.41;;;14.92;58.25
68656;BME280;55638;51.122;13.606;2022-10-16T07:02:27;100116.78;;;14.97;58.36
68656;BME280;55638;51.122;13.606;2022-10-16T07:04:00;100121.91;;;15.00;58.15
68656;BME280;55638;51.122;13.606;2022-10-16T07:05:31;100120.53;;;15.04;58.33
68656;BME280;55638;51.122;13.606;2022-10-16T07:07:04;100120.91;;;15.09;57.92
68656;BME280;55638;51.122;13.606;2022-10-16T07:08:39;100121.41;;;15.13;58.13
68656;BME280;55638;51.122;13.606;2022-10-16T07:10:11;100120.25;;;15.15;57.59
68656;BME280;55638;51.122;13.606;2022-10-16T07:11:43;100124.16;;;15.21;57.82
68656;BME280;55638;51.122;13.606;2022-10-16T07:13:15;100129.13;;;15.25;57.91
68656;BME280;55638;51.122;13.606;2022-10-16T07:14:46;100124.19;;;15.29;57.39
68656;BME280;55638;51.122;13.606;2022-10-16T07:16:19;100137.44;;;15.32;57.45
68656;BME280;55638;51.122;13.606;2022-10-16T07:17:51;100145.94;;;15.37;57.44
68656;BME280;55638;51.122;13.606;2022-10-16T07:19:23;100148.19;;;15.42;57.84
68656;BME280;55638;51.122;13.606;2022-10-16T07:21:02;100148.50;;;15.47;57.44
68656;BME280;55638;51.122;13.606;2022-10-16T07:22:34;100158.06;;;15.51;57.58
68656;BME280;55638;51.122;13.606;2022-10-16T07:24:07;100153.13;;;15.55;57.38
68656;BME280;55638;51.122;13.606;2022-10-16T07:25:41;100155.31;;;15.59;57.60
68656;BME280;55638;51.122;13.606;2022-10-16T07:27:13;100156.69;;;15.63;57.55
68656;BME280;55638;51.122;13.606;2022-10-16T07:28:45;100164.69;;;15.65;57.21
68656;BME280;55638;51.122;13.606;2022-10-16T07:30:17;100166.88;;;15.69;56.90
68656;BME280;55638;51.122;13.606;2022-10-16T07:31:49;100182.88;;;15.72;56.72
68656;BME280;55638;51.122;13.606;2022-10-16T07:33:21;100162.63;;;15.75;57.03
68656;BME280;55638;51.122;13.606;2022-10-16T07:34:53;100178.63;;;15.78;57.28
68656;BME280;55638;51.122;13.606;2022-10-16T07:36:25;100177.47;;;15.81;57.39
68656;BME280;55638;51.122;13.606;2022-10-16T07:37:57;100177.13;;;15.84;57.16
68656;BME280;55638;51.122;13.606;2022-10-16T07:39:28;100181.19;;;15.88;57.06
68656;BME280;55638;51.122;13.606;2022-10-16T07:41:01;100170.81;;;15.91;56.80
68656;BME280;55638;51.122;13.606;2022-10-16T07:42:33;100180.50;;;15.94;56.91
68656;BME280;55638;51.122;13.606;2022-10-16T07:44:05;100180.19;;;15.97;56.46
68656;BME280;55638;51.122;13.606;2022-10-16T07:45:38;100181.56;;;16.01;56.56
68656;BME280;55638;51.122;13.606;2022-10-16T07:47:17;100188.19;;;16.07;56.79
68656;BME280;55638;51.122;13.606;2022-10-16T07:48:49;100185.97;;;16.10;56.86
68656;BME280;55638;51.122;13.606;2022-10-16T07:50:21;100189.00;;;16.15;56.80
68656;BME280;55638;51.122;13.606;2022-10-16T07:51:52;100186.63;;;16.20;57.26
68656;BME280;55638;51.122;13.606;2022-10-16T07:53:24;100189.72;;;16.26;57.22
68656;BME280;55638;51.122;13.606;2022-10-16T07:54:57;100183.53;;;16.32;56.89
68656;BME280;55638;51.122;13.606;2022-10-16T07:56:30;100185.41;;;16.39;56.63
68656;BME280;55638;51.122;13.606;2022-10-16T07:58:01;100181.09;;;16.45;56.71
68656;BME280;55638;51.122;13.606;2022-10-16T07:59:33;100183.13;;;16.51;56.89
68656;BME280;55638;51.122;13.606;2022-10-16T08:01:09;100177.00;;;16.57;56.54
68656;BME280;55638;51.122;13.606;2022-10-16T08:02:41;100169.16;;;16.62;55.70
68656;BME280;55638;51.122;13.606;2022-10-16T08:04:13;100165.03;;;16.66;55.55
68656;BME280;55638;51.122;13.606;2022-10-16T08:05:44;100174.56;;;16.71;55.74
68656;BME280;55638;51.122;13.606;2022-10-16T08:07:16;100181.41;;;16.75;55.23
68656;BME280;55638;51.122;13.606;2022-10-16T08:08:48;100179.19;;;16.78;56.01
68656;BME280;55638;51.122;13.606;2022-10-16T08:10:21;100187.16;;;16.80;55.65
68656;BME280;55638;51.122;13.606;2022-10-16T08:11:53;100183.72;;;16.86;56.40
68656;BME280;55638;51.122;13.606;2022-10-16T08:13:28;100181.00;;;16.86;56.25
68656;BME280;55638;51.122;13.606;2022-10-16T08:14:59;100190.88;;;16.87;55.68
68656;BME280;55638;51.122;13.606;2022-10-16T08:16:31;100189.88;;;16.88;55.84
68656;BME280;55638;51.122;13.606;2022-10-16T08:18:03;100198.72;;;16.90;55.71